Time;durP1;ratioP1;P1;durP2;ratioP2;P2;SDS_P1;SDS_P2;PMS_P1;PMS_P2;Temp;Humidity;BMP_temperature;BMP_pressure;BME280_temperature;BME280_humidity;BME280_pressure;Samples;Min_cycle;Max_cycle;Signal;HPM_P1;HPM_P2
2022/11/10 00:00:26;;;;;;;;;;;;;;;14.52;72.13;95691.78;5013712;28;20474;-73
2022/11/10 00:02:51;;;;;;;;;;;;;;;14.41;71.20;95693.19;5032201;28;20363;-73
2022/11/10 00:05:17;;;;;;;;;;;;;;;14.57;70.66;95694.31;5030241;28;20104;-73
2022/11/10 00:07:42;;;;;;;;;;;;;;;14.40;70.99;95695.06;5032267;28;20013;-74
2022/11/10 00:10:08;;;;;;;;;;;;;;;14.50;70.80;95702.81;5031696;28;20020;-73
2022/11/10 00:12:34;;;;;;;;;;;;;;;14.38;70.60;95705.28;5031132;28;20122;-75
2022/11/10 00:17:43;;;;;;;;;;;;;;;14.30;70.80;95711.44;5020625;28;20428;-74
2022/11/10 00:20:09;;;;;;;;;;;;;;;14.51;70.79;95706.28;5031213;28;20018;-73
2022/11/10 00:22:35;;;;;;;;;;;;;;;14.52;70.86;95708.63;5031876;28;20006;-74
2022/11/10 00:25:00;;;;;;;;;;;;;;;14.64;70.91;95710.69;5030867;28;20018;-73
2022/11/10 00:27:25;;;;;;;;;;;;;;;14.65;70.43;95714.16;5029760;28;20017;-72
2022/11/10 00:29:51;;;;;;;;;;;;;;;13.90;71.58;95724.88;5031054;28;20096;-72
2022/11/10 00:32:16;;;;;;;;;;;;;;;14.35;71.01;95716.63;5029288;28;20010;-72
2022/11/10 00:34:41;;;;;;;;;;;;;;;14.42;70.86;95713.47;5012681;28;20018;-74
2022/11/10 00:37:06;;;;;;;;;;;;;;;14.22;70.63;95717.53;5031205;28;20093;-73
2022/11/10 00:39:32;;;;;;;;;;;;;;;14.52;70.83;95724.69;5011800;28;20010;-73
2022/11/10 00:41:57;;;;;;;;;;;;;;;14.38;70.59;95732.03;5030183;28;20104;-73
2022/11/10 00:44:22;;;;;;;;;;;;;;;14.16;71.84;95737.53;5013541;28;20010;-74
2022/11/10 00:46:47;;;;;;;;;;;;;;;14.37;71.88;95738.50;5011949;28;20014;-73
2022/11/10 00:49:12;;;;;;;;;;;;;;;14.46;71.29;95736.63;5030438;28;20020;-73
2022/11/10 00:51:38;;;;;;;;;;;;;;;14.39;70.97;95746.25;5011874;28;20478;-73
2022/11/10 00:54:03;;;;;;;;;;;;;;;14.37;71.27;95743.84;5029590;28;20533;-74
2022/11/10 00:56:29;;;;;;;;;;;;;;;14.17;71.62;95753.25;5028200;28;20016;-75
2022/11/10 00:58:54;;;;;;;;;;;;;;;14.28;71.40;95751.09;5011152;28;20014;-73
2022/11/10 01:01:21;;;;;;;;;;;;;;;14.72;70.86;95757.31;5029921;28;20057;-73
2022/11/10 01:03:46;;;;;;;;;;;;;;;14.95;71.00;95764.09;5030056;28;20375;-74
2022/11/10 01:06:12;;;;;;;;;;;;;;;14.86;69.78;95757.94;5030286;28;20017;-73
2022/11/10 01:08:38;;;;;;;;;;;;;;;14.79;69.91;95768.31;5029690;28;20565;-73
2022/11/10 01:11:05;;;;;;;;;;;;;;;14.96;69.87;95765.66;5030955;28;20012;-73
2022/11/10 01:13:30;;;;;;;;;;;;;;;14.73;69.87;95762.34;5028694;28;20063;-73
2022/11/10 01:15:56;;;;;;;;;;;;;;;14.90;70.17;95758.91;5029599;28;20455;-73
2022/11/10 01:18:21;;;;;;;;;;;;;;;15.07;70.32;95758.09;5029541;28;20014;-74
2022/11/10 01:20:50;;;;;;;;;;;;;;;15.10;69.77;95760.16;5030606;28;20017;-74
2022/11/10 01:23:15;;;;;;;;;;;;;;;15.21;69.93;95761.38;5012286;28;20015;-73
2022/11/10 01:25:40;;;;;;;;;;;;;;;14.86;68.80;95725.03;5029704;28;20021;-73
2022/11/10 01:28:06;;;;;;;;;;;;;;;15.19;69.41;95766.25;5012234;28;20010;-74
2022/11/10 01:30:31;;;;;;;;;;;;;;;14.75;68.74;95772.75;5028241;28;20010;-74
2022/11/10 01:32:56;;;;;;;;;;;;;;;14.92;69.16;95767.38;5012267;28;20009;-73
2022/11/10 01:35:21;;;;;;;;;;;;;;;14.94;69.13;95770.53;5024139;28;20014;-74
2022/11/10 01:37:47;;;;;;;;;;;;;;;15.00;68.61;95769.28;5009840;28;20018;-73
2022/11/10 01:40:12;;;;;;;;;;;;;;;15.13;68.72;95767.53;5012251;28;20006;-74
2022/11/10 01:42:48;;;;;;;;;;;;;;;15.21;68.22;95774.78;5010650;28;20441;-73
2022/11/10 01:45:22;;;;;;;;;;;;;;;15.30;68.40;95775.56;5011617;28;20016;-74
2022/11/10 01:47:58;;;;;;;;;;;;;;;15.39;68.21;95772.84;5029603;28;20009;-75
2022/11/10 01:50:27;;;;;;;;;;;;;;;15.46;68.14;95777.75;5012338;28;20009;-73
2022/11/10 01:52:54;;;;;;;;;;;;;;;15.50;67.64;95770.63;5030110;28;20729;-74
2022/11/10 01:55:19;;;;;;;;;;;;;;;15.56;67.72;95780.88;5029051;28;20014;-73
2022/11/10 01:57:44;;;;;;;;;;;;;;;15.64;67.56;95781.97;5011742;28;20112;-74
2022/11/10 02:00:10;;;;;;;;;;;;;;;15.65;66.86;95782.75;5014433;28;20010;-72
2022/11/10 02:02:42;;;;;;;;;;;;;;;15.68;67.05;95784.81;5029877;28;20042;-73
2022/11/10 02:05:08;;;;;;;;;;;;;;;15.67;66.73;95784.03;5029111;28;20072;-73
2022/11/10 02:07:33;;;;;;;;;;;;;;;15.68;66.54;95782.91;5027806;28;20010;-72
2022/11/10 02:10:00;;;;;;;;;;;;;;;15.68;66.25;95785.59;5026591;28;20017;-73
2022/11/10 02:12:38;;;;;;;;;;;;;;;15.70;66.44;95783.34;5028177;28;20013;-73
2022/11/10 02:15:04;;;;;;;;;;;;;;;15.68;66.18;95788.28;5010657;28;20086;-73
2022/11/10 02:17:29;;;;;;;;;;;;;;;15.70;66.05;95790.63;5011762;28;20494;-73
2022/11/10 02:19:57;;;;;;;;;;;;;;;15.74;66.05;95778.16;5028115;28;20478;-73
2022/11/10 02:22:23;;;;;;;;;;;;;;;15.74;66.00;95783.50;5028792;28;20020;-73
2022/11/10 02:24:48;;;;;;;;;;;;;;;15.73;66.48;95787.31;5011790;28;20010;-73
2022/11/10 02:27:13;;;;;;;;;;;;;;;15.74;66.04;95786.19;5028155;28;20017;-75
2022/11/10 02:29:39;;;;;;;;;;;;;;;15.73;65.80;95788.09;5027931;28;20231;-73
2022/11/10 02:32:04;;;;;;;;;;;;;;;15.68;65.80;95790.94;5028913;28;20064;-73
2022/11/10 02:34:29;;;;;;;;;;;;;;;15.65;66.35;95785.44;5028836;28;20014;-73
2022/11/10 02:36:55;;;;;;;;;;;;;;;15.67;66.09;95794.75;5011800;28;20010;-73
2022/11/10 02:39:20;;;;;;;;;;;;;;;15.70;65.97;95791.41;5010743;28;20509;-73
2022/11/10 02:41:45;;;;;;;;;;;;;;;15.65;65.77;95794.25;5011162;28;20021;-74
2022/11/10 02:44:10;;;;;;;;;;;;;;;15.67;66.02;95796.66;5028869;28;20014;-73
2022/11/10 02:46:36;;;;;;;;;;;;;;;15.28;65.80;95806.44;5027368;28;20072;-73
2022/11/10 02:49:01;;;;;;;;;;;;;;;14.09;70.18;95807.53;5028569;28;20094;-73
2022/11/10 02:51:26;;;;;;;;;;;;;;;13.69;73.37;95817.44;5029489;28;20021;-74
2022/11/10 02:53:52;;;;;;;;;;;;;;;12.93;75.40;95838.72;5011331;28;20010;-73
2022/11/10 02:56:17;;;;;;;;;;;;;;;12.40;79.66;95840.09;5009608;28;20014;-73
2022/11/10 02:58:42;;;;;;;;;;;;;;;12.37;78.68;95846.03;5028825;28;20014;-73
2022/11/10 03:01:07;;;;;;;;;;;;;;;11.62;80.81;95859.69;5011147;28;20014;-73
2022/11/10 03:03:33;;;;;;;;;;;;;;;12.75;77.41;95864.47;5011148;28;20009;-74
2022/11/10 03:05:58;;;;;;;;;;;;;;;12.58;76.37;95869.63;5027309;28;20010;-74
2022/11/10 03:08:23;;;;;;;;;;;;;;;12.51;76.81;95866.59;5011893;28;20010;-73
2022/11/10 03:10:51;;;;;;;;;;;;;;;12.20;77.43;95883.19;5028900;28;20016;-74
2022/11/10 03:13:16;;;;;;;;;;;;;;;12.29;77.15;95889.41;5011451;28;20009;-74
2022/11/10 03:15:41;;;;;;;;;;;;;;;12.44;77.41;95891.78;5027993;28;20356;-74
2022/11/10 03:18:07;;;;;;;;;;;;;;;11.40;81.99;95901.03;5024158;28;20018;-74
2022/11/10 03:20:32;;;;;;;;;;;;;;;11.68;81.66;95899.25;5005640;28;20017;-74
2022/11/10 03:23:01;;;;;;;;;;;;;;;11.66;81.54;95898.75;5014104;28;20487;-73
2022/11/10 03:25:27;;;;;;;;;;;;;;;12.07;79.58;95906.06;5031524;28;20156;-74
2022/11/10 03:27:52;;;;;;;;;;;;;;;11.74;80.84;95910.63;5014480;28;20509;-73
2022/11/10 03:30:17;;;;;;;;;;;;;;;12.05;80.94;95918.91;5030761;28;20014;-74
2022/11/10 03:32:42;;;;;;;;;;;;;;;12.30;80.39;95924.88;5032614;28;20006;-74
2022/11/10 03:35:08;;;;;;;;;;;;;;;12.14;80.49;95925.16;5031496;28;20166;-74
2022/11/10 03:37:33;;;;;;;;;;;;;;;11.62;81.26;95923.63;5032602;28;20144;-74
2022/11/10 03:39:58;;;;;;;;;;;;;;;11.90;81.34;95932.50;5030300;28;20010;-75
2022/11/10 03:42:23;;;;;;;;;;;;;;;11.83;81.12;95932.91;5031239;28;20014;-75
2022/11/10 03:44:48;;;;;;;;;;;;;;;11.03;81.35;95933.00;5030114;28;20063;-73
2022/11/10 03:47:14;;;;;;;;;;;;;;;11.59;81.00;95930.31;5013933;28;20014;-75
2022/11/10 03:49:39;;;;;;;;;;;;;;;11.80;79.90;95928.09;5012369;28;20497;-75
2022/11/10 03:52:04;;;;;;;;;;;;;;;12.25;79.04;95938.31;5031797;28;20014;-75
2022/11/10 03:54:29;;;;;;;;;;;;;;;12.14;79.02;95945.72;5013666;28;20455;-75
2022/11/10 03:56:55;;;;;;;;;;;;;;;12.02;79.15;95948.81;5032255;28;20013;-75
2022/11/10 03:59:20;;;;;;;;;;;;;;;11.87;79.47;95946.41;5031077;28;20063;-75
2022/11/10 04:01:52;;;;;;;;;;;;;;;12.10;78.47;95947.38;5013798;28;20013;-75
2022/11/10 04:09:46;;;;;;;;;;;;;;;12.50;76.46;95959.19;5020979;28;20021;-75
2022/11/10 04:17:39;;;;;;;;;;;;;;;13.43;76.45;95958.91;5031321;28;20028;-75
2022/11/10 04:20:04;;;;;;;;;;;;;;;13.59;76.43;95967.38;5031682;28;20100;-75
2022/11/10 04:25:13;;;;;;;;;;;;;;;13.89;75.52;95955.97;5029960;28;20119;-75
2022/11/10 04:27:39;;;;;;;;;;;;;;;13.97;75.59;95957.91;5013041;28;20076;-75
2022/11/10 04:30:04;;;;;;;;;;;;;;;14.01;75.67;95966.88;5030695;28;20060;-75
2022/11/10 04:32:30;;;;;;;;;;;;;;;14.07;75.23;95966.75;5012705;28;20099;-74
2022/11/10 04:34:55;;;;;;;;;;;;;;;14.05;74.58;95975.09;5011938;28;20587;-74
2022/11/10 04:37:20;;;;;;;;;;;;;;;14.04;74.28;95989.59;5013682;28;20014;-75
2022/11/10 04:39:46;;;;;;;;;;;;;;;13.72;72.56;95988.72;5013306;28;20483;-75
2022/11/10 04:42:11;;;;;;;;;;;;;;;13.49;72.93;95998.59;5030877;28;20474;-74
2022/11/10 04:44:36;;;;;;;;;;;;;;;13.14;73.85;96004.66;5030558;28;20010;-74
2022/11/10 04:47:01;;;;;;;;;;;;;;;12.90;74.54;96019.03;5028853;28;20006;-75
2022/11/10 04:49:26;;;;;;;;;;;;;;;13.14;75.16;96018.00;5012982;28;20017;-74
2022/11/10 04:51:52;;;;;;;;;;;;;;;13.09;75.14;96013.56;5030735;28;20017;-74
2022/11/10 04:54:17;;;;;;;;;;;;;;;13.37;74.60;96010.91;5013109;28;20068;-74
2022/11/10 04:56:42;;;;;;;;;;;;;;;13.46;74.54;96022.44;5012812;28;20014;-74
2022/11/10 04:59:07;;;;;;;;;;;;;;;13.50;74.57;96021.53;5012927;28;20037;-75
2022/11/10 05:01:32;;;;;;;;;;;;;;;13.28;73.00;96018.81;5009654;28;20014;-75
2022/11/10 05:03:58;;;;;;;;;;;;;;;13.52;74.13;96014.03;5011483;28;20013;-75
2022/11/10 05:06:23;;;;;;;;;;;;;;;13.61;74.22;96018.66;5023596;28;20010;-75
2022/11/10 05:08:49;;;;;;;;;;;;;;;13.34;73.23;96022.19;5012598;28;20014;-74
2022/11/10 05:11:15;;;;;;;;;;;;;;;13.44;73.01;96022.75;5030901;28;20088;-75
2022/11/10 05:13:40;;;;;;;;;;;;;;;13.41;73.13;96019.88;5012554;28;20493;-74
2022/11/10 05:16:06;;;;;;;;;;;;;;;13.44;73.70;96020.06;5029313;28;20014;-75
2022/11/10 05:18:31;;;;;;;;;;;;;;;13.36;73.61;96034.16;5029333;28;20548;-75
2022/11/10 05:20:56;;;;;;;;;;;;;;;13.20;72.72;96030.16;5029667;28;20064;-75
2022/11/10 05:23:36;;;;;;;;;;;;;;;13.35;74.10;96045.91;5030574;28;20397;-75
2022/11/10 05:26:02;;;;;;;;;;;;;;;13.49;73.73;96046.69;5010658;28;20363;-75
2022/11/10 05:28:27;;;;;;;;;;;;;;;13.58;73.13;96048.66;5008252;28;20109;-75
2022/11/10 05:30:53;;;;;;;;;;;;;;;13.02;72.75;96051.34;5008264;28;20092;-75
2022/11/10 05:33:19;;;;;;;;;;;;;;;12.97;74.10;96051.47;5020584;28;20010;-75
2022/11/10 05:35:44;;;;;;;;;;;;;;;13.10;73.19;96055.19;5030041;28;20014;-75
2022/11/10 05:38:09;;;;;;;;;;;;;;;13.14;74.33;96056.19;5009005;28;20113;-75
2022/11/10 05:40:34;;;;;;;;;;;;;;;12.59;74.36;96071.38;5012654;28;20473;-75
2022/11/10 05:43:00;;;;;;;;;;;;;;;12.61;74.55;96071.88;5030486;28;20504;-75
2022/11/10 05:45:27;;;;;;;;;;;;;;;12.60;75.92;96076.44;5009755;28;20013;-74
2022/11/10 05:47:53;;;;;;;;;;;;;;;12.90;73.97;96083.13;5011936;28;20060;-75
2022/11/10 05:50:19;;;;;;;;;;;;;;;12.67;74.64;96089.38;5012634;28;20050;-74
2022/11/10 05:52:45;;;;;;;;;;;;;;;12.61;74.27;96096.69;5028921;28;20014;-75
2022/11/10 05:55:11;;;;;;;;;;;;;;;12.89;74.28;96089.50;5010541;28;20022;-74
2022/11/10 05:57:36;;;;;;;;;;;;;;;12.99;73.81;96092.00;5011654;28;20363;-74
2022/11/10 06:00:03;;;;;;;;;;;;;;;12.94;73.88;96077.94;5029463;28;20021;-75
2022/11/10 06:02:28;;;;;;;;;;;;;;;13.11;72.89;96104.88;5011829;28;20482;-75
2022/11/10 06:04:54;;;;;;;;;;;;;;;13.22;73.42;96105.50;5028320;28;20156;-74
2022/11/10 06:07:19;;;;;;;;;;;;;;;13.47;73.13;96107.69;5012300;28;20009;-75
2022/11/10 06:09:44;;;;;;;;;;;;;;;13.52;73.17;96114.81;5011706;28;20475;-77
2022/11/10 06:12:09;;;;;;;;;;;;;;;13.73;72.91;96123.22;5010556;28;20496;-73
2022/11/10 06:14:35;;;;;;;;;;;;;;;13.88;73.57;96122.88;5028898;28;20020;-74
2022/11/10 06:17:00;;;;;;;;;;;;;;;14.02;73.22;96123.66;5010696;28;20410;-73
2022/11/10 06:19:25;;;;;;;;;;;;;;;13.92;71.87;96134.56;5027550;28;20025;-73
2022/11/10 06:21:50;;;;;;;;;;;;;;;13.92;72.09;96155.16;5028415;28;20010;-73
2022/11/10 06:24:16;;;;;;;;;;;;;;;13.49;71.21;96153.59;5030095;28;20025;-74
2022/11/10 06:26:41;;;;;;;;;;;;;;;13.73;71.79;96174.78;5039342;28;20014;-74
2022/11/10 06:29:06;;;;;;;;;;;;;;;13.73;71.61;96176.69;5029315;28;20002;-72
2022/11/10 06:31:32;;;;;;;;;;;;;;;13.34;72.03;96185.97;5028507;28;20437;-75
2022/11/10 06:33:57;;;;;;;;;;;;;;;13.39;72.59;96185.88;5012071;28;20459;-74
2022/11/10 06:36:22;;;;;;;;;;;;;;;13.62;71.82;96186.00;5029351;28;20010;-75
2022/11/10 06:38:47;;;;;;;;;;;;;;;13.45;71.64;96184.69;5011342;28;20009;-77
2022/11/10 06:41:12;;;;;;;;;;;;;;;13.66;71.87;96187.75;5028374;28;20120;-75
2022/11/10 06:43:38;;;;;;;;;;;;;;;13.81;71.98;96186.66;5028979;28;20555;-74
2022/11/10 06:46:03;;;;;;;;;;;;;;;13.97;72.15;96187.13;4998691;28;20036;-74
2022/11/10 06:48:28;;;;;;;;;;;;;;;14.10;72.51;96194.38;5029796;28;20013;-74
2022/11/10 06:50:54;;;;;;;;;;;;;;;14.05;70.26;96197.94;5029370;28;20490;-74
2022/11/10 06:53:19;;;;;;;;;;;;;;;14.00;69.52;96202.59;5028233;28;20172;-73
2022/11/10 06:55:44;;;;;;;;;;;;;;;14.03;70.55;96210.03;5011298;28;20045;-75
2022/11/10 06:58:10;;;;;;;;;;;;;;;13.96;71.00;96207.75;5032222;28;20381;-75
2022/11/10 07:00:35;;;;;;;;;;;;;;;13.92;71.15;96214.00;5031531;28;20010;-75
2022/11/10 07:03:01;;;;;;;;;;;;;;;13.93;71.63;96221.75;5010072;28;20500;-74
2022/11/10 07:05:26;;;;;;;;;;;;;;;13.81;70.78;96228.66;5015744;28;20010;-76
2022/11/10 07:07:51;;;;;;;;;;;;;;;13.73;70.76;96230.16;5014464;28;20014;-75
2022/11/10 07:10:16;;;;;;;;;;;;;;;13.60;70.41;96228.25;5031514;28;20487;-74
2022/11/10 07:12:42;;;;;;;;;;;;;;;13.60;71.32;96238.94;5012168;28;20508;-74
2022/11/10 07:15:07;;;;;;;;;;;;;;;13.54;71.60;96240.94;5013591;28;20022;-75
2022/11/10 07:17:37;;;;;;;;;;;;;;;13.39;71.25;96249.22;5014778;28;20026;-72
2022/11/10 07:20:03;;;;;;;;;;;;;;;13.36;71.20;96252.47;5030296;28;20093;-72
2022/11/10 07:22:28;;;;;;;;;;;;;;;13.40;71.91;96261.50;5031332;28;20104;-71
2022/11/10 07:24:53;;;;;;;;;;;;;;;13.49;72.38;96268.53;5030519;28;20026;-72
2022/11/10 07:27:18;;;;;;;;;;;;;;;13.45;72.93;96270.22;5031041;28;20013;-72
2022/11/10 07:29:43;;;;;;;;;;;;;;;13.92;72.51;96275.50;5030818;28;20490;-73
2022/11/10 07:32:09;;;;;;;;;;;;;;;14.05;71.04;96272.84;5030939;28;20017;-71
2022/11/10 07:34:34;;;;;;;;;;;;;;;14.33;71.81;96280.88;5030141;28;20056;-72
2022/11/10 07:36:59;;;;;;;;;;;;;;;14.36;68.87;96282.13;5031202;28;20006;-71
2022/11/10 07:39:24;;;;;;;;;;;;;;;14.43;70.38;96277.94;5030910;28;20064;-71
2022/11/10 07:41:49;;;;;;;;;;;;;;;14.71;70.68;96277.94;5030611;28;20486;-72
2022/11/10 07:44:15;;;;;;;;;;;;;;;14.99;70.99;96282.09;5030665;28;20056;-71
2022/11/10 07:46:40;;;;;;;;;;;;;;;15.22;70.35;96282.91;5029439;28;20018;-72
2022/11/10 07:49:05;;;;;;;;;;;;;;;15.38;70.13;96291.34;5030350;28;20370;-71
2022/11/10 07:51:30;;;;;;;;;;;;;;;15.31;67.64;96301.72;5031540;28;20013;-72
2022/11/10 07:53:56;;;;;;;;;;;;;;;14.47;66.68;96299.56;5012460;28;20545;-71
2022/11/10 07:56:21;;;;;;;;;;;;;;;14.30;68.47;96303.66;5031022;28;20006;-72
2022/11/10 07:58:47;;;;;;;;;;;;;;;14.03;68.52;96307.13;5029742;28;20064;-71
2022/11/10 08:01:12;;;;;;;;;;;;;;;14.62;69.66;96298.47;5012745;28;20021;-71
2022/11/10 08:03:37;;;;;;;;;;;;;;;14.78;69.08;96307.75;5013290;28;20295;-71
2022/11/10 08:06:02;;;;;;;;;;;;;;;14.74;69.02;96309.44;5013206;28;20490;-71
2022/11/10 08:08:28;;;;;;;;;;;;;;;14.73;67.84;96305.19;5029594;28;20108;-72
2022/11/10 08:10:56;;;;;;;;;;;;;;;14.30;68.82;96308.22;5031062;28;20001;-71
2022/11/10 08:13:21;;;;;;;;;;;;;;;13.97;69.81;96319.03;5029220;28;20014;-71
2022/11/10 08:15:46;;;;;;;;;;;;;;;13.97;69.44;96312.84;5029184;28;20073;-72
2022/11/10 08:18:17;;;;;;;;;;;;;;;13.95;70.45;96310.47;4950634;28;1768343;-72
2022/11/10 08:20:42;;;;;;;;;;;;;;;13.50;70.98;96318.22;5031311;28;20014;-71
2022/11/10 08:23:07;;;;;;;;;;;;;;;13.21;70.88;96322.97;5031583;28;20522;-71
2022/11/10 08:25:34;;;;;;;;;;;;;;;13.41;71.68;96321.88;5012008;28;20022;-71
2022/11/10 08:28:00;;;;;;;;;;;;;;;13.80;70.48;96332.16;5020031;28;20006;-73
2022/11/10 08:30:26;;;;;;;;;;;;;;;13.32;71.96;96329.78;5029628;28;20021;-73
2022/11/10 08:32:55;;;;;;;;;;;;;;;13.55;71.88;96333.41;5031370;28;20014;-73
2022/11/10 08:35:20;;;;;;;;;;;;;;;13.19;72.56;96338.50;5030283;28;20018;-73
2022/11/10 08:37:46;;;;;;;;;;;;;;;13.01;73.04;96337.44;5013078;28;20021;-72
2022/11/10 08:40:11;;;;;;;;;;;;;;;13.42;71.17;96334.97;5023013;28;20613;-72
2022/11/10 08:42:36;;;;;;;;;;;;;;;13.39;71.32;96340.88;5011210;28;20010;-72
2022/11/10 08:45:02;;;;;;;;;;;;;;;13.49;72.40;96338.03;5010178;28;20013;-69
2022/11/10 08:47:27;;;;;;;;;;;;;;;14.31;70.78;96333.88;5029669;28;20140;-70
2022/11/10 08:49:52;;;;;;;;;;;;;;;15.02;70.71;96340.44;5010413;28;20387;-70
2022/11/10 08:52:17;;;;;;;;;;;;;;;14.73;68.47;96346.16;5012545;28;20388;-69
2022/11/10 08:54:42;;;;;;;;;;;;;;;14.79;68.87;96350.34;5024381;28;20014;-68
2022/11/10 08:57:08;;;;;;;;;;;;;;;13.74;70.34;96352.84;5007483;28;20021;-72
2022/11/10 08:59:33;;;;;;;;;;;;;;;13.04;72.79;96368.91;5012402;28;20037;-72
2022/11/10 09:01:58;;;;;;;;;;;;;;;13.09;71.81;96371.50;5028421;28;20458;-72
2022/11/10 09:04:23;;;;;;;;;;;;;;;13.62;70.68;96381.16;5011580;28;20011;-67
2022/11/10 09:06:48;;;;;;;;;;;;;;;13.17;71.22;96381.53;5030033;28;20089;-72
2022/11/10 09:09:15;;;;;;;;;;;;;;;12.78;71.93;96386.34;5019726;28;20012;-74
2022/11/10 09:11:40;;;;;;;;;;;;;;;12.85;72.21;96378.81;5020912;28;20025;-74
2022/11/10 09:14:05;;;;;;;;;;;;;;;12.77;72.49;96393.56;5003798;28;20390;-72
2022/11/10 09:16:30;;;;;;;;;;;;;;;13.08;71.90;96395.84;5029551;28;20013;-75
2022/11/10 09:18:55;;;;;;;;;;;;;;;12.84;72.15;96398.56;5011053;28;20057;-73
2022/11/10 09:21:21;;;;;;;;;;;;;;;13.67;71.17;96415.84;5011421;28;20064;-73
2022/11/10 09:23:47;;;;;;;;;;;;;;;13.94;72.50;96405.19;5029956;28;20397;-68
2022/11/10 09:26:12;;;;;;;;;;;;;;;15.02;69.64;96412.78;5028443;28;20398;-69
2022/11/10 09:28:37;;;;;;;;;;;;;;;14.41;67.09;96419.34;5009583;28;20117;-68
2022/11/10 09:31:03;;;;;;;;;;;;;;;15.29;65.19;96416.47;5029733;28;20014;-65
2022/11/10 09:33:28;;;;;;;;;;;;;;;15.67;63.38;96421.56;5011871;28;20009;-67
2022/11/10 09:35:57;;;;;;;;;;;;;;;15.70;62.75;96420.94;5030236;28;20076;-68
2022/11/10 09:38:22;;;;;;;;;;;;;;;15.71;61.16;96417.94;5030076;28;20726;-67
2022/11/10 09:40:54;;;;;;;;;;;;;;;15.11;63.31;96422.81;5030116;28;20084;-67
2022/11/10 09:43:27;;;;;;;;;;;;;;;14.61;62.76;96439.59;5029469;28;20026;-68
2022/11/10 09:45:54;;;;;;;;;;;;;;;14.72;62.59;96438.31;5027245;28;20564;-67
2022/11/10 09:48:29;;;;;;;;;;;;;;;14.87;62.37;96439.88;5030508;28;20052;-68
2022/11/10 09:51:00;;;;;;;;;;;;;;;15.36;61.35;96427.59;5011275;28;20040;-68
2022/11/10 09:53:36;;;;;;;;;;;;;;;14.84;60.95;96432.44;5029460;28;20020;-68
2022/11/10 09:56:03;;;;;;;;;;;;;;;14.74;61.47;96428.09;5018043;28;20040;-68
2022/11/10 09:58:38;;;;;;;;;;;;;;;15.14;60.88;96430.22;5029407;28;20037;-68
2022/11/10 10:01:03;;;;;;;;;;;;;;;15.28;61.09;96433.66;5029766;28;20064;-68
2022/11/10 10:03:30;;;;;;;;;;;;;;;15.17;59.89;96435.00;5012572;28;20041;-68
2022/11/10 10:05:55;;;;;;;;;;;;;;;15.78;58.03;96439.00;5010068;28;20076;-68
2022/11/10 10:08:29;;;;;;;;;;;;;;;15.69;57.45;96441.59;5029678;28;20493;-68
2022/11/10 10:11:03;;;;;;;;;;;;;;;15.68;57.55;96440.03;5028923;28;20412;-68
2022/11/10 10:13:47;;;;;;;;;;;;;;;15.84;56.23;96443.13;5017495;28;20013;-68
2022/11/10 10:16:31;;;;;;;;;;;;;;;16.54;53.56;96452.38;5009485;28;20059;-68
2022/11/10 10:19:15;;;;;;;;;;;;;;;15.53;55.06;96448.41;5027924;28;20014;-67
2022/11/10 10:21:48;;;;;;;;;;;;;;;16.38;54.75;96452.78;5029763;28;20249;-67
2022/11/10 10:24:15;;;;;;;;;;;;;;;15.38;57.34;96460.25;5030099;28;20006;-67
2022/11/10 10:26:43;;;;;;;;;;;;;;;15.30;56.68;96460.97;5028794;28;20041;-67
2022/11/10 10:29:13;;;;;;;;;;;;;;;15.09;57.03;96471.31;5007825;28;20010;-67
2022/11/10 10:31:42;;;;;;;;;;;;;;;14.78;57.99;96477.28;5022138;28;20014;-67
2022/11/10 10:34:12;;;;;;;;;;;;;;;15.83;56.28;96463.00;5013411;28;20014;-67
2022/11/10 10:36:37;;;;;;;;;;;;;;;16.30;55.10;96466.16;5015368;28;20071;-68
2022/11/10 10:39:14;;;;;;;;;;;;;;;15.60;55.11;96446.06;5032757;28;20014;-67
2022/11/10 10:41:40;;;;;;;;;;;;;;;16.40;53.53;96449.78;5033608;28;20009;-68
2022/11/10 10:44:10;;;;;;;;;;;;;;;16.46;53.83;96451.22;5011627;28;20075;-67
2022/11/10 10:46:46;;;;;;;;;;;;;;;16.18;54.54;96453.31;5029087;28;20068;-68
2022/11/10 10:49:12;;;;;;;;;;;;;;;16.16;53.79;96462.75;5029130;28;20010;-66
2022/11/10 10:51:37;;;;;;;;;;;;;;;15.89;54.15;96467.16;5015249;28;20363;-66
2022/11/10 10:54:03;;;;;;;;;;;;;;;15.44;55.70;96463.59;5022739;28;20014;-66
2022/11/10 10:56:31;;;;;;;;;;;;;;;15.60;55.08;96462.97;5009974;28;20010;-71
2022/11/10 10:58:59;;;;;;;;;;;;;;;15.64;54.61;96462.38;5026797;28;20109;-71
2022/11/10 11:01:28;;;;;;;;;;;;;;;15.94;54.78;96472.41;5013615;28;20470;-71
2022/11/10 11:03:53;;;;;;;;;;;;;;;16.02;54.93;96474.38;5028511;28;20539;-71
2022/11/10 11:06:18;;;;;;;;;;;;;;;15.88;53.85;96470.16;5032606;28;20108;-73
2022/11/10 11:08:53;;;;;;;;;;;;;;;15.91;53.86;96470.31;5030269;28;20104;-74
2022/11/10 11:11:22;;;;;;;;;;;;;;;15.55;53.50;96470.31;5030682;28;20020;-75
2022/11/10 11:13:47;;;;;;;;;;;;;;;15.48;53.99;96478.78;5033286;28;20014;-75
2022/11/10 11:16:12;;;;;;;;;;;;;;;16.10;53.29;96476.28;5025053;28;20017;-73
2022/11/10 11:18:39;;;;;;;;;;;;;;;15.18;54.09;96477.56;5011676;28;20018;-73
2022/11/10 11:21:07;;;;;;;;;;;;;;;14.83;55.49;96487.91;5059701;23;20052;-65
2022/11/10 11:23:38;;;;;;;;;;;;;;;15.22;54.53;96491.16;5058364;28;20429;-67
2022/11/10 11:26:18;;;;;;;;;;;;;;;14.52;55.66;96494.94;5050149;28;20055;-67
2022/11/10 11:28:52;;;;;;;;;;;;;;;15.01;54.88;96496.94;5050676;28;20096;-66
2022/11/10 11:31:23;;;;;;;;;;;;;;;15.51;54.37;96494.28;5051522;28;20021;-66
2022/11/10 11:34:14;;;;;;;;;;;;;;;15.07;54.68;96497.63;5052626;28;20373;-65
2022/11/10 11:37:12;;;;;;;;;;;;;;;14.75;55.38;96496.66;5028634;28;20018;-66
2022/11/10 11:39:37;;;;;;;;;;;;;;;15.40;54.07;96489.44;5045551;28;20156;-65
2022/11/10 11:42:22;;;;;;;;;;;;;;;14.96;53.15;96489.00;5052406;28;20047;-66
2022/11/10 11:45:02;;;;;;;;;;;;;;;15.72;51.93;96483.13;5049099;28;20543;-66
2022/11/10 11:47:27;;;;;;;;;;;;;;;16.07;51.85;96481.47;5051013;28;20014;-66
2022/11/10 11:50:11;;;;;;;;;;;;;;;16.72;50.56;96478.22;5048277;28;20009;-67
2022/11/10 11:52:54;;;;;;;;;;;;;;;17.41;50.32;96473.03;5049903;28;20462;-66
2022/11/10 11:55:25;;;;;;;;;;;;;;;17.95;49.01;96480.81;5050789;28;20013;-67
2022/11/10 11:58:29;;;;;;;;;;;;;;;17.83;46.60;96477.97;5051332;28;20063;-66
2022/11/10 12:00:59;;;;;;;;;;;;;;;18.21;45.75;96469.22;5012045;28;20390;-66
2022/11/10 12:03:37;;;;;;;;;;;;;;;18.34;46.10;96460.94;5025965;28;20056;-65
2022/11/10 12:06:21;;;;;;;;;;;;;;;18.59;45.99;96458.50;5039598;28;20113;-65
2022/11/10 12:09:11;;;;;;;;;;;;;;;18.21;45.80;96458.44;5045248;28;20017;-66
2022/11/10 12:11:45;;;;;;;;;;;;;;;16.56;47.74;96468.97;5030517;28;20104;-66
2022/11/10 12:14:16;;;;;;;;;;;;;;;15.57;48.41;96473.50;5030593;28;20646;-67
2022/11/10 12:16:43;;;;;;;;;;;;;;;15.81;49.09;96470.56;5031404;28;20095;-66
2022/11/10 12:19:11;;;;;;;;;;;;;;;15.28;49.94;96466.63;5047657;28;20020;-66
2022/11/10 12:21:51;;;;;;;;;;;;;;;14.87;49.09;96468.56;5052176;28;20022;-66
2022/11/10 12:24:34;;;;;;;;;;;;;;;15.11;49.99;96466.47;5044316;28;20040;-65
2022/11/10 12:27:08;;;;;;;;;;;;;;;14.57;52.25;96468.06;5046668;28;20014;-64
2022/11/10 12:29:34;;;;;;;;;;;;;;;15.29;50.08;96470.09;5049630;28;20147;-66
2022/11/10 12:32:26;;;;;;;;;;;;;;;15.28;50.85;96468.50;5047434;28;20016;-66
2022/11/10 12:34:55;;;;;;;;;;;;;;;14.69;51.32;96465.72;5041969;28;20064;-67
2022/11/10 12:37:35;;;;;;;;;;;;;;;14.70;52.15;96475.31;5052006;28;20005;-67
2022/11/10 12:40:02;;;;;;;;;;;;;;;14.65;51.65;96462.03;5049070;28;20010;-64
2022/11/10 12:42:28;;;;;;;;;;;;;;;15.49;50.43;96455.44;5049294;28;20487;-66
2022/11/10 12:44:56;;;;;;;;;;;;;;;14.82;51.51;96462.22;5049989;28;20470;-66
2022/11/10 12:47:24;;;;;;;;;;;;;;;15.52;50.60;96446.81;5050824;28;20061;-65
2022/11/10 12:50:10;;;;;;;;;;;;;;;16.02;49.49;96447.53;5048941;28;20005;-67
2022/11/10 12:52:50;;;;;;;;;;;;;;;15.75;50.02;96444.94;5049314;28;20497;-66
2022/11/10 12:55:16;;;;;;;;;;;;;;;15.76;48.95;96457.25;5048764;28;20021;-67
2022/11/10 12:57:41;;;;;;;;;;;;;;;15.60;49.91;96462.16;5048898;28;20014;-67
2022/11/10 13:00:27;;;;;;;;;;;;;;;15.66;50.34;96460.19;5049427;28;20005;-66
2022/11/10 13:02:54;;;;;;;;;;;;;;;14.98;51.60;96469.94;5049889;28;20541;-66
2022/11/10 13:05:25;;;;;;;;;;;;;;;15.42;50.81;96463.91;5046863;28;20523;-69